createdAt,value
2019-06-01T00:00:10.082Z,74.50
2019-06-01T00:02:26.017Z,74.60
2019-06-01T00:04:57.032Z,75.00
2019-06-01T00:07:27.146Z,75.50
2019-06-01T00:09:57.653Z,75.80
2019-06-01T00:12:27.668Z,75.80
2019-06-01T00:14:58.043Z,75.90
2019-06-01T00:17:28.133Z,76.30
2019-06-01T00:19:58.147Z,76.40
2019-06-01T00:22:28.177Z,75.60
2019-06-01T00:24:58.292Z,76.10
2019-06-01T00:27:28.816Z,76.10
2019-06-01T00:29:58.946Z,76.20
2019-06-01T00:32:29.840Z,76.20
2019-06-01T00:34:59.862Z,76.30
2019-06-01T00:37:30.834Z,77.40
2019-06-01T00:40:01.392Z,76.50
2019-06-01T00:42:32.103Z,76.70
2019-06-01T00:45:02.263Z,76.90
2019-06-01T00:47:32.447Z,77.10
2019-06-01T00:50:02.629Z,77.00
2019-06-01T00:52:33.128Z,76.90
2019-06-01T00:55:03.181Z,77.50
2019-06-01T00:57:33.598Z,77.70
2019-06-01T01:00:04.424Z,77.70
2019-06-01T01:02:35.387Z,77.80
2019-06-01T01:05:15.253Z,77.80
2019-06-01T01:07:46.615Z,78.00
2019-06-01T01:10:19.346Z,78.10
2019-06-01T01:13:07.859Z,78.10
2019-06-01T01:15:38.294Z,78.20
2019-06-01T01:18:10.435Z,78.30
2019-06-01T01:20:40.677Z,78.30
2019-06-01T01:23:11.396Z,78.30
2019-06-01T01:25:41.442Z,78.60
2019-06-01T01:28:11.735Z,79.10
2019-06-01T01:30:58.093Z,79.20
2019-06-01T01:33:16.307Z,79.80
2019-06-01T01:35:47.524Z,80.10
2019-06-01T01:38:17.719Z,80.20
2019-06-01T01:40:50.040Z,80.20
2019-06-01T01:43:20.837Z,80.00
2019-06-01T01:45:50.966Z,79.90
2019-06-01T01:48:21.504Z,79.80
2019-06-01T01:50:52.401Z,80.00
2019-06-01T01:53:23.163Z,80.40
2019-06-01T01:55:55.055Z,80.40
2019-06-01T01:58:25.373Z,80.60
2019-06-01T02:00:56.824Z,80.60
2019-06-01T02:03:28.609Z,80.80
2019-06-01T02:05:59.183Z,80.80
2019-06-01T02:08:30.487Z,81.70
2019-06-01T02:11:01.829Z,81.20
2019-06-01T02:13:34.269Z,81.30
2019-06-01T02:16:04.483Z,81.20
2019-06-01T02:18:34.802Z,81.10
2019-06-01T02:21:05.069Z,81.30
2019-06-01T02:23:35.592Z,81.40
2019-06-01T02:26:07.215Z,81.00
2019-06-01T02:28:38.058Z,81.60
2019-06-01T02:31:08.346Z,81.60
2019-06-01T02:33:39.343Z,81.80
2019-06-01T02:36:10.013Z,82.60
2019-06-01T02:38:40.429Z,82.30
2019-06-01T02:41:11.044Z,82.40
2019-06-01T02:43:41.591Z,82.60
2019-06-01T02:46:11.648Z,82.70
2019-06-01T02:48:41.842Z,82.70
2019-06-01T02:51:12.418Z,82.90
2019-06-01T02:53:42.776Z,82.90
2019-06-01T02:56:14.200Z,83.00
2019-06-01T02:58:44.648Z,83.20
2019-06-01T03:01:35.132Z,83.40
2019-06-01T03:04:10.494Z,83.50
2019-06-01T03:06:43.591Z,83.50
2019-06-01T03:09:14.883Z,83.60
2019-06-01T03:11:46.896Z,83.60
2019-06-01T03:14:19.155Z,83.90
2019-06-01T03:16:51.627Z,84.00
2019-06-01T03:19:24.167Z,84.10
2019-06-01T03:21:57.844Z,84.40
2019-06-01T03:24:30.451Z,84.10
2019-06-01T03:27:04.544Z,84.70
2019-06-01T03:33:14.215Z,84.30
2019-06-01T03:35:46.627Z,84.40
2019-06-01T03:38:17.114Z,84.50
2019-06-01T03:40:47.649Z,84.40
2019-06-01T03:43:19.437Z,84.90
2019-06-01T03:45:49.558Z,84.60
2019-06-01T03:48:19.805Z,85.60
2019-06-01T03:50:51.132Z,85.80
2019-06-01T03:53:21.548Z,86.60
2019-06-01T03:55:52.985Z,85.90
2019-06-01T03:58:23.352Z,85.80
2019-06-01T04:00:55.398Z,85.50
2019-06-01T04:03:25.552Z,85.70
2019-06-01T04:05:55.635Z,85.70
2019-06-01T04:08:27.320Z,85.40
2019-06-01T04:10:57.404Z,85.30
2019-06-01T04:13:28.333Z,85.20
2019-06-01T04:15:59.582Z,84.20
2019-06-01T04:18:29.779Z,84.90
2019-06-01T04:21:00.239Z,84.60
2019-06-01T04:23:30.732Z,84.70
2019-06-01T04:26:02.080Z,84.70
2019-06-01T04:28:32.302Z,84.70
2019-06-01T04:31:04.576Z,84.80
2019-06-01T04:33:34.856Z,84.80
2019-06-01T04:36:04.972Z,84.60
2019-06-01T04:38:35.353Z,84.50
2019-06-01T04:41:05.661Z,84.70
2019-06-01T04:43:36.296Z,84.80
2019-06-01T04:46:08.110Z,83.90
2019-06-01T04:48:38.690Z,84.40
2019-06-01T04:51:09.334Z,84.20
2019-06-01T04:53:39.809Z,83.90
2019-06-01T04:56:11.045Z,83.20
2019-06-01T04:58:41.475Z,83.60
2019-06-01T05:01:13.044Z,83.30
2019-06-01T05:03:43.537Z,82.90
2019-06-01T05:06:15.484Z,82.60
2019-06-01T05:08:46.806Z,82.40
2019-06-01T05:11:17.919Z,82.20
2019-06-01T05:13:48.575Z,82.10
2019-06-01T05:16:20.000Z,81.20
2019-06-01T05:18:50.771Z,81.70
2019-06-01T05:21:20.897Z,81.50
2019-06-01T05:23:50.926Z,81.20
2019-06-01T05:26:22.615Z,80.90
2019-06-01T05:28:53.967Z,80.80
2019-06-01T05:31:25.479Z,80.80
2019-06-01T05:33:55.998Z,80.60
2019-06-01T05:36:27.811Z,80.50
2019-06-01T05:38:57.839Z,80.00
2019-06-01T05:41:31.579Z,79.00
2019-06-01T05:44:02.353Z,79.60
2019-06-01T05:46:33.049Z,79.10
2019-06-01T05:49:03.267Z,78.80
2019-06-01T05:51:33.612Z,78.60
2019-06-01T05:54:04.140Z,78.10
2019-06-01T05:56:35.784Z,77.90
2019-06-01T05:59:06.363Z,77.10
2019-06-01T06:01:36.895Z,76.00
2019-06-01T06:04:07.063Z,76.40
2019-06-01T06:06:37.643Z,76.10
2019-06-01T06:09:11.312Z,76.00
2019-06-01T06:11:42.311Z,76.10
2019-06-01T06:14:13.360Z,76.00
2019-06-01T06:16:43.543Z,75.60
2019-06-01T06:19:20.267Z,74.80
2019-06-01T06:21:47.937Z,74.20
2019-06-01T06:24:18.536Z,74.10
2019-06-01T06:26:49.925Z,73.80
2019-06-01T06:29:23.018Z,73.40
2019-06-01T06:31:53.528Z,71.60
2019-06-01T06:34:23.720Z,73.00
2019-06-01T06:36:55.854Z,71.80
2019-06-01T06:39:26.100Z,71.60
2019-06-01T06:41:56.950Z,71.10
2019-06-01T06:44:27.315Z,71.00
2019-06-01T06:46:57.948Z,71.60
2019-06-01T06:49:28.120Z,71.30
2019-06-01T06:51:59.035Z,71.10
2019-06-01T06:54:30.315Z,70.90
2019-06-01T06:57:00.326Z,70.60
2019-06-01T06:59:30.427Z,70.20
2019-06-01T07:02:01.091Z,69.60
2019-06-01T07:04:31.241Z,69.50
2019-06-01T07:07:01.612Z,67.80
2019-06-01T07:09:33.124Z,65.70
2019-06-01T07:12:03.324Z,66.20
2019-06-01T07:14:33.872Z,65.90
2019-06-01T07:17:03.945Z,65.80
2019-06-01T07:19:34.968Z,66.00
2019-06-01T07:22:06.337Z,66.10
2019-06-01T07:24:37.084Z,65.50
2019-06-01T07:27:07.334Z,65.50
2019-06-01T07:29:37.651Z,64.80
2019-06-01T07:32:08.237Z,65.40
2019-06-01T07:34:42.140Z,64.90
2019-06-01T07:37:10.963Z,64.10
2019-06-01T07:39:41.887Z,63.50
2019-06-01T07:42:12.443Z,63.00
2019-06-01T07:44:43.046Z,61.60
2019-06-01T07:47:13.457Z,62.00
2019-06-01T07:53:03.066Z,61.30
2019-06-01T07:55:33.566Z,60.90
2019-06-01T07:58:04.371Z,61.10
2019-06-01T08:00:37.324Z,60.60
2019-06-01T08:03:07.598Z,60.00
2019-06-01T08:05:37.701Z,59.90
2019-06-01T08:08:08.164Z,59.10
2019-06-01T08:10:38.382Z,58.80
2019-06-01T08:15:40.864Z,58.10
2019-06-01T08:18:11.730Z,58.60
2019-06-01T08:23:13.719Z,57.50
2019-06-01T08:25:44.000Z,57.30
2019-06-01T08:28:15.207Z,57.30
2019-06-01T08:30:47.693Z,57.10
2019-06-01T08:33:18.450Z,57.50
2019-06-01T08:35:48.787Z,57.10
2019-06-01T08:38:19.413Z,57.00
2019-06-01T08:40:49.519Z,56.60
2019-06-01T08:43:23.523Z,56.60
2019-06-01T08:45:55.308Z,54.80
2019-06-01T08:48:26.250Z,54.90
2019-06-01T08:53:28.166Z,56.10
2019-06-01T08:55:58.419Z,55.40
2019-06-01T08:58:30.381Z,55.60
2019-06-01T09:01:00.698Z,56.50
2019-06-01T09:06:03.215Z,54.50
2019-06-01T09:08:35.028Z,55.00
2019-06-01T09:11:05.956Z,54.50
2019-06-01T09:13:37.851Z,54.60
2019-06-01T09:16:09.875Z,54.70
2019-06-01T09:18:42.674Z,54.60
2019-06-01T09:21:12.802Z,53.50
2019-06-01T09:23:43.378Z,54.10
2019-06-01T09:26:13.991Z,53.90
2019-06-01T09:28:45.231Z,53.60
2019-06-01T09:31:16.633Z,54.10
2019-06-01T09:33:47.675Z,52.40
2019-06-01T09:36:18.162Z,52.90
2019-06-01T09:38:48.654Z,53.20
2019-06-01T09:41:18.955Z,54.10
2019-06-01T09:43:48.997Z,53.40
2019-06-01T09:46:19.864Z,53.90
2019-06-01T09:48:50.051Z,54.00
2019-06-01T09:51:20.315Z,54.20
2019-06-01T09:53:51.291Z,53.00
2019-06-01T09:56:21.589Z,53.60
2019-06-01T09:58:52.968Z,53.80
2019-06-01T10:01:23.215Z,53.00
2019-06-01T10:03:53.311Z,52.00
2019-06-01T10:06:23.645Z,52.90
2019-06-01T10:08:54.223Z,52.00
2019-06-01T10:11:24.876Z,51.70
2019-06-01T10:13:55.048Z,52.30
2019-06-01T10:16:26.369Z,51.00
2019-06-01T10:18:57.045Z,50.80
2019-06-01T10:21:27.793Z,52.00
2019-06-01T10:26:31.471Z,51.00
2019-06-01T10:29:03.046Z,52.20
2019-06-01T10:31:34.582Z,51.60
2019-06-01T10:34:06.351Z,50.10
2019-06-01T10:36:38.045Z,50.00
2019-06-01T10:39:09.583Z,50.20
2019-06-01T10:41:42.170Z,50.50
2019-06-01T10:44:12.639Z,50.30
2019-06-01T10:46:42.793Z,50.70
2019-06-01T10:49:12.964Z,48.80
2019-06-01T10:51:43.448Z,47.70
2019-06-01T10:54:13.755Z,48.30
2019-06-01T10:56:43.925Z,48.20
2019-06-01T10:59:15.470Z,48.70
2019-06-01T11:01:46.188Z,47.70
2019-06-01T11:04:16.711Z,47.50
2019-06-01T11:06:50.128Z,46.50
2019-06-01T11:09:20.830Z,46.80
2019-06-01T11:14:21.362Z,48.00
2019-06-01T11:16:56.642Z,47.60
2019-06-01T11:19:25.617Z,48.00
2019-06-01T11:21:56.184Z,47.50
2019-06-01T11:24:26.842Z,45.20
2019-06-01T11:27:01.729Z,45.20
2019-06-01T11:29:31.934Z,44.50
2019-06-01T11:32:03.015Z,44.80
2019-06-01T11:34:33.936Z,43.00
2019-06-01T11:37:05.695Z,43.80
2019-06-01T11:39:36.355Z,44.00
2019-06-01T11:42:07.550Z,44.10
2019-06-01T11:44:38.656Z,44.50
2019-06-01T11:47:09.069Z,44.50
2019-06-01T11:49:39.448Z,44.80
2019-06-01T11:52:09.678Z,42.60
2019-06-01T11:54:41.236Z,42.90
2019-06-01T11:57:12.390Z,43.00
2019-06-01T11:59:43.563Z,41.20
2019-06-01T12:02:17.235Z,41.60
2019-06-01T12:04:47.880Z,41.70
2019-06-01T12:07:18.533Z,42.10
2019-06-01T12:09:49.846Z,39.60
2019-06-01T12:12:21.601Z,40.20
2019-06-01T12:14:52.423Z,40.20
2019-06-01T12:17:25.094Z,40.80
2019-06-01T12:19:55.542Z,41.20
2019-06-01T12:22:28.751Z,40.30
2019-06-01T12:25:00.156Z,40.70
2019-06-01T12:27:30.399Z,39.70
2019-06-01T12:30:01.960Z,39.70
2019-06-01T12:32:54.002Z,39.30
2019-06-01T12:35:25.252Z,38.80
2019-06-01T12:38:06.036Z,39.30
2019-06-01T12:40:27.993Z,37.90
2019-06-01T12:42:58.418Z,37.30
2019-06-01T12:45:29.079Z,37.10
2019-06-01T12:47:59.447Z,36.40
2019-06-01T12:50:29.748Z,36.90
2019-06-01T12:53:00.534Z,37.30
2019-06-01T12:55:30.740Z,37.90
2019-06-01T12:58:00.954Z,36.90
2019-06-01T13:00:31.127Z,36.20
2019-06-01T13:03:07.423Z,35.80
2019-06-01T13:05:33.902Z,36.20
2019-06-01T13:08:04.100Z,36.70
2019-06-01T13:13:04.059Z,36.30
2019-06-01T13:15:34.176Z,36.00
2019-06-01T13:18:04.655Z,35.20
2019-06-01T13:20:36.717Z,33.30
2019-06-01T13:23:06.739Z,33.90
2019-06-01T13:25:37.405Z,33.30
2019-06-01T13:28:07.522Z,34.20
2019-06-01T13:30:37.609Z,34.40
2019-06-01T13:33:08.243Z,34.50
2019-06-01T13:35:39.083Z,33.30
2019-06-01T13:38:12.381Z,33.70
2019-06-01T13:40:41.169Z,33.00
2019-06-01T13:43:11.222Z,32.50
2019-06-01T13:45:43.060Z,32.90
2019-06-01T13:48:13.305Z,31.50
2019-06-01T13:50:43.638Z,32.20
2019-06-01T13:53:13.810Z,30.70
2019-06-01T13:55:44.275Z,29.90
2019-06-01T13:58:14.440Z,29.00
2019-06-01T14:03:15.350Z,28.50
2019-06-01T14:05:46.727Z,28.10
2019-06-01T14:08:28.592Z,28.30
2019-06-01T14:10:51.265Z,27.30
2019-06-01T14:13:22.396Z,26.80
2019-06-01T14:20:53.923Z,26.70
2019-06-01T14:23:24.049Z,26.60
2019-06-01T14:25:54.390Z,25.60
2019-06-01T14:28:24.607Z,26.20
2019-06-01T14:30:54.935Z,26.40
2019-06-01T14:33:26.986Z,26.90
2019-06-01T14:35:57.153Z,27.20
2019-06-01T14:38:27.538Z,27.00
2019-06-01T14:40:58.151Z,26.90
2019-06-01T14:43:28.629Z,25.60
2019-06-01T14:45:58.849Z,26.00
2019-06-01T14:48:29.218Z,25.60
2019-06-01T14:50:59.619Z,25.50
2019-06-01T14:53:29.752Z,25.30
2019-06-01T14:56:00.406Z,25.20
2019-06-01T14:58:30.595Z,25.00
2019-06-01T15:01:00.724Z,25.00
2019-06-01T15:03:30.972Z,24.80
2019-06-01T15:06:01.332Z,24.70
2019-06-01T15:08:31.491Z,25.00
2019-06-01T15:11:03.583Z,24.70
2019-06-01T15:13:33.627Z,24.90
2019-06-01T15:16:05.538Z,25.20
2019-06-01T15:18:35.635Z,25.20
2019-06-01T15:21:05.951Z,24.50
2019-06-01T15:23:36.171Z,24.30
2019-06-01T15:26:06.825Z,24.40
2019-06-01T15:28:38.733Z,23.90
2019-06-01T15:31:09.010Z,23.30
2019-06-01T15:33:39.204Z,23.60
2019-06-01T15:36:09.634Z,24.40
2019-06-01T15:38:40.091Z,24.40
2019-06-01T15:41:10.397Z,23.50
2019-06-01T15:43:40.715Z,23.50
2019-06-01T15:48:40.806Z,23.10
2019-06-01T15:51:11.525Z,23.00
2019-06-01T15:53:42.232Z,23.30
2019-06-01T15:56:12.911Z,23.90
2019-06-01T15:58:52.325Z,23.90
2019-06-01T16:01:16.338Z,23.50
2019-06-01T16:03:46.719Z,23.90
2019-06-01T16:06:17.522Z,23.80
2019-06-01T16:08:47.789Z,24.40
2019-06-01T16:11:19.638Z,24.90
2019-06-01T16:13:49.939Z,25.00
2019-06-01T16:16:20.065Z,24.00
2019-06-01T16:18:51.390Z,23.60
2019-06-01T16:21:22.167Z,23.20
2019-06-01T16:23:56.314Z,23.10
2019-06-01T16:28:56.341Z,23.50
2019-06-01T16:31:28.570Z,24.50
2019-06-01T16:34:00.658Z,24.90
2019-06-01T16:36:31.427Z,24.80
2019-06-01T16:39:05.217Z,25.20
2019-06-01T16:41:35.968Z,25.00
2019-06-01T16:44:06.592Z,25.40
2019-06-01T16:46:38.061Z,25.80
2019-06-01T16:49:09.274Z,26.00
2019-06-01T16:52:10.867Z,25.50
2019-06-01T16:54:41.232Z,26.60
2019-06-01T16:57:11.384Z,26.30
2019-06-01T16:59:44.109Z,24.60
2019-06-01T17:02:14.450Z,27.20
2019-06-01T17:04:44.702Z,27.20
2019-06-01T17:07:15.355Z,27.70
2019-06-01T17:09:45.861Z,28.00
2019-06-01T17:12:16.156Z,28.40
2019-06-01T17:14:46.467Z,28.70
2019-06-01T17:19:46.538Z,30.00
2019-06-01T17:22:16.967Z,31.80
2019-06-01T17:24:47.335Z,30.80
2019-06-01T17:27:17.897Z,31.20
2019-06-01T17:29:48.019Z,31.50
2019-06-01T17:32:24.184Z,32.20
2019-06-01T17:34:50.477Z,32.30
2019-06-01T17:37:20.949Z,32.40
2019-06-01T17:39:51.379Z,32.70
2019-06-01T17:42:21.862Z,32.90
2019-06-01T17:49:52.750Z,33.90
2019-06-01T17:54:52.663Z,34.50
2019-06-01T17:57:23.190Z,34.40
2019-06-01T18:02:25.118Z,34.00
2019-06-01T18:04:57.035Z,34.00
2019-06-01T18:07:28.037Z,34.30
2019-06-01T18:09:58.323Z,34.70
2019-06-01T18:12:28.850Z,35.70
2019-06-01T18:15:38.027Z,35.40
2019-06-01T18:18:12.661Z,35.80
2019-06-01T18:20:43.243Z,36.30
2019-06-01T18:23:13.890Z,36.50
2019-06-01T18:25:44.437Z,36.60
2019-06-01T18:28:19.497Z,37.10
2019-06-01T18:30:51.530Z,37.50
2019-06-01T18:33:23.182Z,37.60
2019-06-01T18:35:55.152Z,37.40
2019-06-01T18:38:26.727Z,37.70
2019-06-01T18:41:09.312Z,38.00
2019-06-01T18:43:30.365Z,38.00
2019-06-01T18:46:01.447Z,38.10
2019-06-01T18:48:32.297Z,38.70
2019-06-01T18:51:04.020Z,38.90
2019-06-01T18:58:39.548Z,40.00
2019-06-01T19:03:41.582Z,40.70
2019-06-01T19:08:42.416Z,45.10
2019-06-01T19:11:27.450Z,42.00
2019-06-01T19:13:45.364Z,42.50
2019-06-01T19:16:16.377Z,42.70
2019-06-01T19:21:16.916Z,44.10
2019-06-01T19:23:48.691Z,43.70
2019-06-01T19:26:19.033Z,43.90
2019-06-01T19:28:49.317Z,44.10
2019-06-01T19:31:19.586Z,44.40
2019-06-01T19:33:49.974Z,45.80
2019-06-01T19:36:21.064Z,45.10
2019-06-01T19:38:53.224Z,45.20
2019-06-01T19:41:23.616Z,45.30
2019-06-01T19:48:53.899Z,47.00
2019-06-01T19:51:24.130Z,47.80
2019-06-01T19:56:23.718Z,46.60
2019-06-01T19:58:57.570Z,46.90
2019-06-01T20:03:58.740Z,47.00
2019-06-01T20:06:28.968Z,47.50
2019-06-01T20:09:00.910Z,48.80
2019-06-01T20:11:32.665Z,48.50
2019-06-01T20:14:03.057Z,49.30
2019-06-01T20:16:33.204Z,48.80
2019-06-01T20:19:03.787Z,49.00
2019-06-01T20:21:34.071Z,49.30
2019-06-01T20:24:04.890Z,50.60
2019-06-01T20:26:42.128Z,50.00
2019-06-01T20:29:06.859Z,50.90
2019-06-01T20:31:36.899Z,51.50
2019-06-01T20:34:07.107Z,51.80
2019-06-01T20:36:37.571Z,52.20
2019-06-01T20:39:08.770Z,52.60
2019-06-01T20:41:39.088Z,52.90
2019-06-01T20:44:10.882Z,53.20
2019-06-01T20:49:10.736Z,54.00
2019-06-01T20:51:40.892Z,54.40
2019-06-01T20:54:12.873Z,54.60
2019-06-01T21:01:44.440Z,55.70
2019-06-01T21:04:16.205Z,55.90
2019-06-01T21:06:46.447Z,56.80
2019-06-01T21:09:17.752Z,56.90
2019-06-01T21:11:50.481Z,57.30
2019-06-01T21:14:20.600Z,57.40
2019-06-01T21:16:52.103Z,57.40
2019-06-01T21:19:22.691Z,58.00
2019-06-01T21:21:52.900Z,57.60
2019-06-01T21:24:25.095Z,58.70
2019-06-01T21:26:55.613Z,58.40
2019-06-01T21:29:25.975Z,58.60
2019-06-01T21:31:56.493Z,59.10
2019-06-01T21:34:26.612Z,59.60
2019-06-01T21:36:58.767Z,60.00
2019-06-01T21:39:29.424Z,60.20
2019-06-01T21:41:59.485Z,61.30
2019-06-01T21:44:30.306Z,60.80
2019-06-01T21:47:00.811Z,60.50
2019-06-01T21:52:03.422Z,62.20
2019-06-01T21:54:33.575Z,61.40
2019-06-01T21:57:04.451Z,61.90
2019-06-01T21:59:34.976Z,61.30
2019-06-01T22:02:05.986Z,62.50
2019-06-01T22:04:37.282Z,62.10
2019-06-01T22:07:07.567Z,62.30
2019-06-01T22:09:37.686Z,62.20
2019-06-01T22:12:07.872Z,62.60
2019-06-01T22:14:38.307Z,63.20
2019-06-01T22:17:10.163Z,63.10
2019-06-01T22:19:41.771Z,63.40
2019-06-01T22:22:11.859Z,63.80
2019-06-01T22:24:41.884Z,64.00
2019-06-01T22:27:12.895Z,63.70
2019-06-01T22:29:43.026Z,64.40
2019-06-01T22:32:16.126Z,64.60
2019-06-01T22:34:46.155Z,65.00
2019-06-01T22:37:19.687Z,65.10
2019-06-01T22:39:51.855Z,65.40
2019-06-01T22:42:22.179Z,65.90
2019-06-01T22:44:52.302Z,65.60
2019-06-01T22:47:22.727Z,66.00
2019-06-01T22:49:52.892Z,66.60
2019-06-01T22:52:24.886Z,66.90
2019-06-01T22:54:56.148Z,66.70
2019-06-01T22:57:26.620Z,67.20
2019-06-01T22:59:58.214Z,67.40
2019-06-01T23:02:29.856Z,67.70
2019-06-01T23:05:00.588Z,68.00
2019-06-01T23:07:31.349Z,68.60
2019-06-01T23:10:02.897Z,68.70
2019-06-01T23:12:33.033Z,68.60
2019-06-01T23:15:03.302Z,69.10
2019-06-01T23:17:33.533Z,69.20
2019-06-01T23:20:03.810Z,68.80
2019-06-01T23:22:35.207Z,69.40
2019-06-01T23:25:05.924Z,69.40
2019-06-01T23:27:36.345Z,69.70
2019-06-01T23:30:07.513Z,69.40
2019-06-01T23:32:38.024Z,69.70
2019-06-01T23:35:08.023Z,69.60
2019-06-01T23:37:38.009Z,70.00
2019-06-01T23:40:08.098Z,70.60
2019-06-01T23:42:38.206Z,70.70
2019-06-01T23:45:08.243Z,71.30
2019-06-01T23:47:38.645Z,71.00
2019-06-01T23:50:08.782Z,70.80
2019-06-01T23:52:39.172Z,71.00
2019-06-01T23:55:09.597Z,71.30
2019-06-01T23:57:39.809Z,71.60
